Sunday, July 22, 2018, 6:12 PM EDT
Back to Local

KABE, Lehigh Valley International Airport

Location: Allentown, PA, United States Lat: 40.65
Local Time: 6:12 PM EDT (22:12 GMT) Lon: -75.45
Time Zone: US/Eastern Elev: 393 ft

Show me the last for .
Show Decoded

2018-07-22 17:51 METAR KABE 222151Z 14016G21KT 10SM FEW120 28/22 A2988 RMK AO2 PK WND 13027/2129
                 LTG DSNT SW RAB05E15 SLP114 P0000 T02830217 =
2018-07-22 16:51 METAR KABE 222051Z 04005KT 10SM FEW034 SCT041 BKN070 26/23 A2989 RMK AO2 RAE1958
                 SLP119 P0000 60022 T02610228 56003 =
2018-07-22 15:58 METAR KABE 221958Z 23005KT 9SM FEW019 SCT036 BKN075 25/22 A2989 =
2018-07-22 15:51 METAR KABE 221951Z 23007KT 4SM RA BR BKN021 BKN040 OVC075 24/22 A2989 RMK AO2
                 RAB06 SLP119 P0022 T02390217 =
2018-07-22 15:48 METAR KABE 221948Z 24004KT 2SM RA BR SCT017 BKN028 OVC075 24/22 A2989 RMK AO2
                 VIS 1V5 RAB06 P0020 =
2018-07-22 15:42 METAR KABE 221942Z 24008KT 1SM +RA SCT017 BKN030 OVC060 24/21 A2989 RMK AO2
                 RAB06 P0018 T02390211 =
2018-07-22 15:24 METAR KABE 221924Z 23009KT 2SM +RA FEW019 BKN049 OVC075 24/21 A2990 RMK AO2
                 RAB06 P0005 T02440211 =
2018-07-22 14:51 METAR KABE 221851Z 00000KT 10SM SCT026 BKN036 OVC049 25/20 A2989 RMK AO2 SLP120
                 T02500200 =
2018-07-22 14:46 METAR KABE 221846Z 24005KT 10SM BKN026 OVC036 25/20 A2990 RMK AO2 =
2018-07-22 14:14 METAR KABE 221814Z 11010KT 10SM SCT028 OVC040 28/20 A2989 RMK AO2 T02780200 =
2018-07-22 14:03 METAR KABE 221803Z 12010KT 10SM BKN028 BKN038 BKN045 28/20 A2990 RMK AO2
                 T02780200 =
2018-07-22 13:51 METAR KABE 221751Z 12010KT 100V160 10SM SCT026 BKN032 OVC040 27/20 A2990 RMK AO2
                 SLP123 T02720200 10272 20222 50003 =
2018-07-22 13:14 METAR KABE 221714Z 13004KT 10SM BKN030 BKN055 BKN070 27/19 A2991 RMK AO2
                 T02670194 =
2018-07-22 12:51 METAR KABE 221651Z VRB06G17KT 10SM BKN023 27/19 A2991 RMK AO2 SLP124 T02670194 =
2018-07-22 12:37 METAR KABE 221637Z 13007KT 100V160 10SM SCT023 27/19 A2991 RMK AO2 T02670194 =
2018-07-22 11:51 METAR KABE 221551Z 16008KT 130V200 10SM OVC022 25/19 A2991 RMK AO2 SLP127
                 T02500194 =
2018-07-22 10:51 METAR KABE 221451Z 17009KT 10SM BKN018 OVC024 24/19 A2989 RMK AO2 SLP120
                 T02390189 53019 =
2018-07-22 09:51 METAR KABE 221351Z 20010KT 10SM OVC016 23/18 A2987 RMK AO2 SLP111 T02280183 =
2018-07-22 08:51 METAR KABE 221251Z 17007KT 10SM BKN015 OVC021 22/19 A2984 RMK AO2 SLP102
                 T02220189 =
2018-07-22 08:47 METAR KABE 221247Z 16007KT 10SM BKN013 OVC021 22/19 A2984 RMK AO2 =
2018-07-22 07:51 METAR KABE 221151Z 16006KT 10SM OVC020 22/19 A2981 RMK AO2 RAE1056 CIG 014V026
                 SLP092 P0000 60024 70093 T02220189 10228 20189 53046 =
2018-07-22 07:00 METAR KABE 221100Z 19011KT 10SM SCT009 BKN016 OVC022 22/19 A2976 RMK AO2 RAE1056
                 P0000 T02220194 =
2018-07-22 06:51 METAR KABE 221051Z 18013G17KT 3SM -RA BR BKN009 BKN016 OVC023 22/20 A2975 RMK
                 AO2 CIG 007V013 SLP073 P0005 T02220200 =
2018-07-22 06:01 METAR KABE 221001Z 11009KT 2 1/2SM -RA BR BKN009 OVC014 22/20 A2971 RMK AO2
                 P0001 T02220200 =
2018-07-22 05:51 METAR KABE 220951Z 12009G21KT 2 1/2SM -RA BR BKN010 OVC016 22/20 A2971 RMK AO2
                 SLP057 P0005 T02220200 =
2018-07-22 05:13 METAR KABE 220913Z 12011G21KT 2SM -RA BR BKN011 OVC015 22/20 A2968 RMK AO2 P0003
                 T02220200 =
2018-07-22 04:51 METAR KABE 220851Z 12012G21KT 5SM -RA BR BKN011 OVC018 23/21 A2967 RMK AO2 PK
                 WND 10028/0752 SLP045 P0001 60014 T02280206 55006 =
2018-07-22 04:32 METAR KABE 220832Z 12015G21KT 5SM -RA BR SCT010 BKN015 OVC022 23/21 A2967 RMK
                 AO2 PK WND 10028/0752 P0001 T02280206 =
2018-07-22 03:51 METAR KABE 220751Z 11014G22KT 9SM -RA OVC012 23/21 A2966 RMK AO2 SLP041 P0003
                 T02280206 =
2018-07-22 03:30 METAR KABE 220730Z 11015G20KT 6SM -RA BR FEW006 BKN011 OVC014 23/21 A2967 RMK
                 AO2 CIG 007V013 P0002 T02280206 =
2018-07-22 02:51 METAR KABE 220651Z 06014KT 8SM -RA BKN006 OVC012 20/18 A2968 RMK AO2 SLP046
                 P0010 T02000183 =
2018-07-22 02:42 METAR KABE 220642Z 06015KT 4SM -RA BR BKN006 OVC012 19/18 A2968 RMK AO2 P0010
                 T01940178 =
2018-07-22 02:35 METAR KABE 220635Z 07014KT 2 1/2SM -RA BR BKN006 BKN012 OVC018 19/18 A2968 RMK
                 AO2 P0009 T01940178 =
2018-07-22 02:27 METAR KABE 220627Z 07013KT 3SM RA BR SCT006 OVC014 19/17 A2969 RMK AO2 P0006
                 T01940172 =
2018-07-22 01:51 METAR KABE 220551Z 06019G26KT 3SM -RA BR SCT007 SCT015 OVC023 19/17 A2969 RMK
                 AO2 PK WND 06028/0526 SLP052 P0013 60038 T01890167 10189 20172 56043 =
2018-07-22 01:37 METAR KABE 220537Z 05019G27KT 2 1/2SM +RA BR FEW007 SCT013 OVC025 18/17 A2971
                 RMK AO2 PK WND 06028/0526 P0009 T01830167 =
2018-07-22 01:29 METAR KABE 220529Z 05022G28KT 4SM +RA BR SCT007 BKN013 OVC030 18/17 A2972 RMK
                 AO2 PK WND 06028/0526 P0005 T01830167 =
2018-07-22 01:19 METAR KABE 220519Z 05019G23KT 5SM -RA BR SCT007 OVC015 18/16 A2973 RMK AO2 P0002
                 T01830161 =
2018-07-22 00:59 METAR KABE 220459Z 05016KT 7SM -RA SCT006 OVC014 18/16 A2975 RMK AO2 P0001
                 T01780161 =
2018-07-22 00:51 METAR KABE 220451Z AUTO 05019KT 6SM -RA BR BKN008 BKN017 OVC030 18/16 A2976 RMK
                 AO2 SLP074 P0009 T01780161 402500167 =
2018-07-21 23:51 METAR KABE 220351Z 05013KT 6SM -RA BR BKN008 OVC012 17/15 A2982 RMK AO2 CIG
                 006V010 SLP095 P0002 T01720150 =
2018-07-21 22:51 METAR KABE 220251Z 06015KT 7SM -RA OVC012 17/14 A2985 RMK AO2 SLP106 P0002 60014
                 T01720144 58019 =
2018-07-21 22:40 METAR KABE 220240Z 06014KT 10SM -RA OVC014 17/14 A2986 RMK AO2 P0002 T01720144 =
2018-07-21 21:51 METAR KABE 220151Z 06016KT 9SM -RA OVC020 17/14 A2989 RMK AO2 SLP119 P0003
                 T01720144 =
2018-07-21 20:51 METAR KABE 220051Z 06013G20KT 5SM -RA OVC028 18/16 A2991 RMK AO2 SLP125 P0009
                 T01830156 =
2018-07-21 20:24 METAR KABE 220024Z 06013KT 4SM -RA BR OVC032 18/16 A2991 RMK AO2 P0007 T01830161
                 =
2018-07-21 20:09 METAR KABE 220009Z 05011KT 2SM RA BR FEW007 BKN033 OVC043 18/16 A2992 RMK AO2
                 P0005 T01830161 =
2018-07-21 20:01 METAR KABE 220001Z 06011KT 2 1/2SM RA BR SCT007 BKN017 OVC043 18/16 A2993 RMK
                 AO2 P0001 T01830161 =
2018-07-21 19:51 METAR KABE 212351Z 05012KT 3SM -RA BR SCT007 BKN011 OVC050 19/17 A2993 RMK AO2
                 SLP133 P0015 60031 T01890167 10233 20183 58017 =
2018-07-21 19:33 METAR KABE 212333Z 09010KT 3SM RA BR SCT009 BKN013 OVC044 18/16 A2994 RMK AO2
                 P0012 T01830161 =
2018-07-21 19:25 METAR KABE 212325Z 08010KT 2 1/2SM +RA BR BKN011 BKN019 OVC047 18/16 A2995 RMK
                 AO2 P0008 T01830161 =
2018-07-21 19:10 METAR KABE 212310Z 09011KT 3SM RA BR FEW009 BKN017 OVC047 18/16 A2995 RMK AO2
                 P0004 T01830161 =
2018-07-21 19:02 METAR KABE 212302Z 08011KT 4SM RA FEW009 SCT013 OVC050 19/16 A2995 =
2018-07-21 18:51 METAR KABE 212251Z 08010KT 4SM RA BR BKN013 BKN055 OVC070 19/17 A2996 RMK AO2
                 SLP143 P0009 T01890167 =

Support USWX by starting your Amazon purchase here.